sensor_id;sensor_type;location;lat;lon;timestamp;P1;durP1;ratioP1;P2;durP2;ratioP2
68365;SDS011;55283;51.466;5.478;2022-12-16T00:02:01;5.10;;;3.87;;
68365;SDS011;55283;51.466;5.478;2022-12-16T00:04:27;5.73;;;4.00;;
68365;SDS011;55283;51.466;5.478;2022-12-16T00:06:52;5.77;;;4.10;;
68365;SDS011;55283;51.466;5.478;2022-12-16T00:09:20;5.57;;;4.13;;
68365;SDS011;55283;51.466;5.478;2022-12-16T00:11:45;6.35;;;4.30;;
68365;SDS011;55283;51.466;5.478;2022-12-16T00:14:11;4.93;;;3.90;;
68365;SDS011;55283;51.466;5.478;2022-12-16T00:16:36;6.50;;;4.03;;
68365;SDS011;55283;51.466;5.478;2022-12-16T00:19:01;6.13;;;4.10;;
68365;SDS011;55283;51.466;5.478;2022-12-16T00:21:27;5.83;;;4.10;;
68365;SDS011;55283;51.466;5.478;2022-12-16T00:23:54;5.40;;;4.00;;
68365;SDS011;55283;51.466;5.478;2022-12-16T00:26:20;5.45;;;4.03;;
68365;SDS011;55283;51.466;5.478;2022-12-16T00:28:46;5.40;;;3.90;;
68365;SDS011;55283;51.466;5.478;2022-12-16T00:31:17;5.50;;;4.00;;
68365;SDS011;55283;51.466;5.478;2022-12-16T00:33:43;4.97;;;3.90;;
68365;SDS011;55283;51.466;5.478;2022-12-16T00:36:11;6.10;;;4.10;;
68365;SDS011;55283;51.466;5.478;2022-12-16T00:38:36;5.05;;;3.85;;
68365;SDS011;55283;51.466;5.478;2022-12-16T00:41:07;4.97;;;3.83;;
68365;SDS011;55283;51.466;5.478;2022-12-16T00:43:35;5.18;;;3.95;;
68365;SDS011;55283;51.466;5.478;2022-12-16T00:46:01;5.15;;;3.72;;
68365;SDS011;55283;51.466;5.478;2022-12-16T00:48:26;4.53;;;3.80;;
68365;SDS011;55283;51.466;5.478;2022-12-16T00:50:52;5.40;;;4.07;;
68365;SDS011;55283;51.466;5.478;2022-12-16T00:53:19;5.70;;;3.92;;
68365;SDS011;55283;51.466;5.478;2022-12-16T00:55:48;4.50;;;3.80;;
68365;SDS011;55283;51.466;5.478;2022-12-16T00:58:13;5.07;;;4.00;;
68365;SDS011;55283;51.466;5.478;2022-12-16T01:00:39;5.43;;;3.80;;
68365;SDS011;55283;51.466;5.478;2022-12-16T01:03:05;5.22;;;3.85;;
68365;SDS011;55283;51.466;5.478;2022-12-16T01:05:30;5.60;;;3.90;;
68365;SDS011;55283;51.466;5.478;2022-12-16T01:07:58;5.15;;;4.03;;
68365;SDS011;55283;51.466;5.478;2022-12-16T01:10:24;4.83;;;3.60;;
68365;SDS011;55283;51.466;5.478;2022-12-16T01:12:52;4.10;;;3.60;;
68365;SDS011;55283;51.466;5.478;2022-12-16T01:15:17;5.82;;;4.00;;
68365;SDS011;55283;51.466;5.478;2022-12-16T01:17:43;5.33;;;4.00;;
68365;SDS011;55283;51.466;5.478;2022-12-16T01:20:10;5.78;;;3.70;;
68365;SDS011;55283;51.466;5.478;2022-12-16T01:22:38;4.55;;;3.53;;
68365;SDS011;55283;51.466;5.478;2022-12-16T01:25:03;4.90;;;3.43;;
68365;SDS011;55283;51.466;5.478;2022-12-16T01:27:29;4.80;;;3.72;;
68365;SDS011;55283;51.466;5.478;2022-12-16T01:29:55;4.80;;;3.70;;
68365;SDS011;55283;51.466;5.478;2022-12-16T01:32:23;4.85;;;3.60;;
68365;SDS011;55283;51.466;5.478;2022-12-16T01:34:52;4.70;;;3.80;;
68365;SDS011;55283;51.466;5.478;2022-12-16T01:37:23;5.25;;;3.95;;
68365;SDS011;55283;51.466;5.478;2022-12-16T01:39:49;4.97;;;3.70;;
68365;SDS011;55283;51.466;5.478;2022-12-16T01:42:16;5.00;;;4.00;;
68365;SDS011;55283;51.466;5.478;2022-12-16T01:44:44;4.60;;;3.60;;
68365;SDS011;55283;51.466;5.478;2022-12-16T01:47:15;5.18;;;3.78;;
68365;SDS011;55283;51.466;5.478;2022-12-16T01:52:21;5.47;;;3.90;;
68365;SDS011;55283;51.466;5.478;2022-12-16T01:54:49;5.28;;;4.15;;
68365;SDS011;55283;51.466;5.478;2022-12-16T01:57:39;4.20;;;3.72;;
68365;SDS011;55283;51.466;5.478;2022-12-16T02:00:09;6.03;;;3.90;;
68365;SDS011;55283;51.466;5.478;2022-12-16T02:02:34;5.90;;;3.80;;
68365;SDS011;55283;51.466;5.478;2022-12-16T02:05:00;5.38;;;3.95;;
68365;SDS011;55283;51.466;5.478;2022-12-16T02:10:16;4.95;;;3.58;;
68365;SDS011;55283;51.466;5.478;2022-12-16T02:12:57;5.22;;;3.70;;
68365;SDS011;55283;51.466;5.478;2022-12-16T02:16:15;4.93;;;3.65;;
68365;SDS011;55283;51.466;5.478;2022-12-16T02:24:29;4.60;;;3.60;;
68365;SDS011;55283;51.466;5.478;2022-12-16T02:38:55;5.18;;;3.40;;
68365;SDS011;55283;51.466;5.478;2022-12-16T02:41:28;5.15;;;3.70;;
68365;SDS011;55283;51.466;5.478;2022-12-16T02:44:08;4.07;;;3.58;;
68365;SDS011;55283;51.466;5.478;2022-12-16T02:46:39;5.27;;;3.90;;
68365;SDS011;55283;51.466;5.478;2022-12-16T02:49:38;4.90;;;3.80;;
68365;SDS011;55283;51.466;5.478;2022-12-16T02:51:51;4.35;;;3.40;;
68365;SDS011;55283;51.466;5.478;2022-12-16T02:54:23;4.70;;;3.80;;
68365;SDS011;55283;51.466;5.478;2022-12-16T02:56:59;4.25;;;3.40;;
68365;SDS011;55283;51.466;5.478;2022-12-16T03:02:35;5.13;;;3.83;;
68365;SDS011;55283;51.466;5.478;2022-12-16T03:05:08;5.35;;;3.60;;
68365;SDS011;55283;51.466;5.478;2022-12-16T03:07:43;5.03;;;3.70;;
68365;SDS011;55283;51.466;5.478;2022-12-16T03:10:11;4.18;;;3.38;;
68365;SDS011;55283;51.466;5.478;2022-12-16T03:12:41;4.43;;;3.60;;
68365;SDS011;55283;51.466;5.478;2022-12-16T03:15:08;4.10;;;3.55;;
68365;SDS011;55283;51.466;5.478;2022-12-16T03:17:36;6.35;;;3.75;;
68365;SDS011;55283;51.466;5.478;2022-12-16T03:20:20;4.33;;;3.60;;
68365;SDS011;55283;51.466;5.478;2022-12-16T03:23:00;4.07;;;3.50;;
68365;SDS011;55283;51.466;5.478;2022-12-16T03:25:31;5.45;;;3.63;;
68365;SDS011;55283;51.466;5.478;2022-12-16T03:34:47;4.63;;;3.50;;
68365;SDS011;55283;51.466;5.478;2022-12-16T03:37:15;4.65;;;3.67;;
68365;SDS011;55283;51.466;5.478;2022-12-16T03:39:49;5.20;;;3.63;;
68365;SDS011;55283;51.466;5.478;2022-12-16T03:42:19;4.43;;;3.67;;
68365;SDS011;55283;51.466;5.478;2022-12-16T03:44:45;5.00;;;4.00;;
68365;SDS011;55283;51.466;5.478;2022-12-16T03:47:12;4.47;;;3.78;;
68365;SDS011;55283;51.466;5.478;2022-12-16T03:49:38;4.43;;;3.65;;
68365;SDS011;55283;51.466;5.478;2022-12-16T03:52:04;5.13;;;3.90;;
68365;SDS011;55283;51.466;5.478;2022-12-16T03:54:29;4.47;;;3.45;;
68365;SDS011;55283;51.466;5.478;2022-12-16T03:56:55;4.60;;;3.47;;
68365;SDS011;55283;51.466;5.478;2022-12-16T03:59:20;4.77;;;3.90;;
68365;SDS011;55283;51.466;5.478;2022-12-16T04:01:46;4.43;;;3.72;;
68365;SDS011;55283;51.466;5.478;2022-12-16T04:04:11;3.90;;;3.50;;
68365;SDS011;55283;51.466;5.478;2022-12-16T04:06:39;4.27;;;3.50;;
68365;SDS011;55283;51.466;5.478;2022-12-16T04:09:05;3.92;;;3.40;;
68365;SDS011;55283;51.466;5.478;2022-12-16T04:11:30;4.40;;;3.67;;
68365;SDS011;55283;51.466;5.478;2022-12-16T04:14:17;4.53;;;3.53;;
68365;SDS011;55283;51.466;5.478;2022-12-16T04:17:02;4.63;;;3.50;;
68365;SDS011;55283;51.466;5.478;2022-12-16T04:19:46;4.43;;;3.60;;
68365;SDS011;55283;51.466;5.478;2022-12-16T04:22:32;4.82;;;3.70;;
68365;SDS011;55283;51.466;5.478;2022-12-16T04:25:35;5.57;;;3.42;;
68365;SDS011;55283;51.466;5.478;2022-12-16T04:28:02;5.13;;;3.47;;
68365;SDS011;55283;51.466;5.478;2022-12-16T04:30:30;5.25;;;3.60;;
68365;SDS011;55283;51.466;5.478;2022-12-16T04:33:04;4.60;;;3.50;;
68365;SDS011;55283;51.466;5.478;2022-12-16T04:35:52;4.75;;;3.85;;
68365;SDS011;55283;51.466;5.478;2022-12-16T04:38:36;4.80;;;3.83;;
68365;SDS011;55283;51.466;5.478;2022-12-16T04:41:20;4.27;;;3.50;;
68365;SDS011;55283;51.466;5.478;2022-12-16T04:44:04;4.35;;;3.58;;
68365;SDS011;55283;51.466;5.478;2022-12-16T04:46:51;4.60;;;3.67;;
68365;SDS011;55283;51.466;5.478;2022-12-16T04:49:35;5.37;;;3.60;;
68365;SDS011;55283;51.466;5.478;2022-12-16T04:52:20;5.60;;;3.40;;
68365;SDS011;55283;51.466;5.478;2022-12-16T04:55:07;4.38;;;3.50;;
68365;SDS011;55283;51.466;5.478;2022-12-16T04:57:59;4.35;;;3.40;;
68365;SDS011;55283;51.466;5.478;2022-12-16T05:00:44;4.53;;;3.50;;
68365;SDS011;55283;51.466;5.478;2022-12-16T05:03:30;4.57;;;3.70;;
68365;SDS011;55283;51.466;5.478;2022-12-16T05:06:17;5.07;;;3.78;;
68365;SDS011;55283;51.466;5.478;2022-12-16T05:09:02;5.47;;;3.60;;
68365;SDS011;55283;51.466;5.478;2022-12-16T05:11:47;5.03;;;3.80;;
68365;SDS011;55283;51.466;5.478;2022-12-16T05:14:33;5.10;;;3.78;;
68365;SDS011;55283;51.466;5.478;2022-12-16T05:17:20;4.70;;;3.53;;
68365;SDS011;55283;51.466;5.478;2022-12-16T05:20:04;4.93;;;3.67;;
68365;SDS011;55283;51.466;5.478;2022-12-16T05:22:53;5.05;;;3.50;;
68365;SDS011;55283;51.466;5.478;2022-12-16T05:25:38;5.90;;;3.58;;
68365;SDS011;55283;51.466;5.478;2022-12-16T05:28:22;4.73;;;3.50;;
68365;SDS011;55283;51.466;5.478;2022-12-16T05:31:09;5.32;;;3.90;;
68365;SDS011;55283;51.466;5.478;2022-12-16T05:33:55;5.40;;;3.33;;
68365;SDS011;55283;51.466;5.478;2022-12-16T05:36:39;5.47;;;3.70;;
68365;SDS011;55283;51.466;5.478;2022-12-16T05:39:23;5.60;;;3.75;;
68365;SDS011;55283;51.466;5.478;2022-12-16T05:42:07;4.72;;;3.70;;
68365;SDS011;55283;51.466;5.478;2022-12-16T05:44:51;4.87;;;3.53;;
68365;SDS011;55283;51.466;5.478;2022-12-16T05:47:35;5.28;;;3.42;;
68365;SDS011;55283;51.466;5.478;2022-12-16T05:50:19;5.65;;;3.60;;
68365;SDS011;55283;51.466;5.478;2022-12-16T05:53:06;5.35;;;3.60;;
68365;SDS011;55283;51.466;5.478;2022-12-16T05:55:50;5.10;;;3.70;;
68365;SDS011;55283;51.466;5.478;2022-12-16T05:58:34;4.80;;;3.90;;
68365;SDS011;55283;51.466;5.478;2022-12-16T06:01:17;4.90;;;3.30;;
68365;SDS011;55283;51.466;5.478;2022-12-16T06:04:04;7.07;;;3.67;;
68365;SDS011;55283;51.466;5.478;2022-12-16T06:06:48;5.55;;;3.60;;
68365;SDS011;55283;51.466;5.478;2022-12-16T06:09:32;4.60;;;3.35;;
68365;SDS011;55283;51.466;5.478;2022-12-16T06:12:16;5.37;;;3.73;;
68365;SDS011;55283;51.466;5.478;2022-12-16T06:15:00;4.80;;;3.90;;
68365;SDS011;55283;51.466;5.478;2022-12-16T06:17:47;4.85;;;3.53;;
68365;SDS011;55283;51.466;5.478;2022-12-16T06:20:35;4.65;;;3.45;;
68365;SDS011;55283;51.466;5.478;2022-12-16T06:23:22;5.13;;;3.90;;
68365;SDS011;55283;51.466;5.478;2022-12-16T06:26:06;7.55;;;3.40;;
68365;SDS011;55283;51.466;5.478;2022-12-16T06:28:53;4.45;;;3.40;;
68365;SDS011;55283;51.466;5.478;2022-12-16T06:31:40;5.97;;;3.60;;
68365;SDS011;55283;51.466;5.478;2022-12-16T06:34:24;5.00;;;3.60;;
68365;SDS011;55283;51.466;5.478;2022-12-16T06:37:11;4.80;;;3.50;;
68365;SDS011;55283;51.466;5.478;2022-12-16T06:39:55;4.80;;;3.33;;
68365;SDS011;55283;51.466;5.478;2022-12-16T06:42:42;6.07;;;3.85;;
68365;SDS011;55283;51.466;5.478;2022-12-16T06:45:26;6.60;;;3.33;;
68365;SDS011;55283;51.466;5.478;2022-12-16T06:48:10;6.85;;;3.40;;
68365;SDS011;55283;51.466;5.478;2022-12-16T06:50:54;5.90;;;3.47;;
68365;SDS011;55283;51.466;5.478;2022-12-16T06:53:38;5.10;;;3.38;;
68365;SDS011;55283;51.466;5.478;2022-12-16T06:56:22;7.25;;;3.40;;
68365;SDS011;55283;51.466;5.478;2022-12-16T06:59:06;8.17;;;4.10;;
68365;SDS011;55283;51.466;5.478;2022-12-16T07:01:50;8.02;;;3.50;;
68365;SDS011;55283;51.466;5.478;2022-12-16T07:04:34;8.00;;;3.75;;
68365;SDS011;55283;51.466;5.478;2022-12-16T07:07:18;6.37;;;3.83;;
68365;SDS011;55283;51.466;5.478;2022-12-16T07:10:02;5.25;;;3.90;;
68365;SDS011;55283;51.466;5.478;2022-12-16T07:12:47;15.82;;;10.60;;
68365;SDS011;55283;51.466;5.478;2022-12-16T07:15:31;22.48;;;12.73;;
68365;SDS011;55283;51.466;5.478;2022-12-16T07:18:15;20.27;;;11.43;;
68365;SDS011;55283;51.466;5.478;2022-12-16T07:20:58;17.55;;;7.88;;
68365;SDS011;55283;51.466;5.478;2022-12-16T07:23:43;14.55;;;8.75;;
68365;SDS011;55283;51.466;5.478;2022-12-16T07:26:27;14.50;;;8.83;;
68365;SDS011;55283;51.466;5.478;2022-12-16T07:29:13;17.65;;;9.93;;
68365;SDS011;55283;51.466;5.478;2022-12-16T07:32:04;14.27;;;9.27;;
68365;SDS011;55283;51.466;5.478;2022-12-16T07:34:50;13.87;;;8.63;;
68365;SDS011;55283;51.466;5.478;2022-12-16T07:37:35;14.18;;;7.85;;
68365;SDS011;55283;51.466;5.478;2022-12-16T07:40:21;11.90;;;8.15;;
68365;SDS011;55283;51.466;5.478;2022-12-16T07:43:05;12.18;;;7.75;;
68365;SDS011;55283;51.466;5.478;2022-12-16T07:45:51;12.90;;;7.70;;
68365;SDS011;55283;51.466;5.478;2022-12-16T07:48:35;12.40;;;7.55;;
68365;SDS011;55283;51.466;5.478;2022-12-16T07:51:19;11.75;;;7.25;;
68365;SDS011;55283;51.466;5.478;2022-12-16T07:54:04;11.77;;;7.07;;
68365;SDS011;55283;51.466;5.478;2022-12-16T07:56:47;11.70;;;7.45;;
68365;SDS011;55283;51.466;5.478;2022-12-16T07:59:34;15.55;;;7.00;;
68365;SDS011;55283;51.466;5.478;2022-12-16T08:02:21;10.67;;;6.90;;
68365;SDS011;55283;51.466;5.478;2022-12-16T08:05:05;11.73;;;7.07;;
68365;SDS011;55283;51.466;5.478;2022-12-16T08:08:03;10.95;;;7.00;;
68365;SDS011;55283;51.466;5.478;2022-12-16T08:10:47;9.95;;;6.43;;
68365;SDS011;55283;51.466;5.478;2022-12-16T08:13:31;11.77;;;7.67;;
68365;SDS011;55283;51.466;5.478;2022-12-16T08:16:15;11.27;;;6.53;;
68365;SDS011;55283;51.466;5.478;2022-12-16T08:19:02;12.43;;;6.53;;
68365;SDS011;55283;51.466;5.478;2022-12-16T08:21:46;11.80;;;6.47;;
68365;SDS011;55283;51.466;5.478;2022-12-16T08:24:30;9.98;;;6.03;;
68365;SDS011;55283;51.466;5.478;2022-12-16T08:27:14;11.98;;;6.63;;
68365;SDS011;55283;51.466;5.478;2022-12-16T08:29:58;12.50;;;6.70;;
68365;SDS011;55283;51.466;5.478;2022-12-16T08:32:42;8.73;;;5.88;;
68365;SDS011;55283;51.466;5.478;2022-12-16T08:35:26;8.95;;;5.97;;
68365;SDS011;55283;51.466;5.478;2022-12-16T08:38:13;10.68;;;6.03;;
68365;SDS011;55283;51.466;5.478;2022-12-16T08:40:57;10.93;;;5.97;;
68365;SDS011;55283;51.466;5.478;2022-12-16T08:43:48;9.52;;;6.07;;
68365;SDS011;55283;51.466;5.478;2022-12-16T08:46:32;8.65;;;5.60;;
68365;SDS011;55283;51.466;5.478;2022-12-16T08:49:16;8.10;;;5.57;;
68365;SDS011;55283;51.466;5.478;2022-12-16T08:52:03;8.50;;;5.57;;
68365;SDS011;55283;51.466;5.478;2022-12-16T08:54:49;7.38;;;5.60;;
68365;SDS011;55283;51.466;5.478;2022-12-16T08:57:33;9.83;;;5.30;;
68365;SDS011;55283;51.466;5.478;2022-12-16T09:00:18;9.43;;;5.63;;
68365;SDS011;55283;51.466;5.478;2022-12-16T09:03:18;7.63;;;5.25;;
68365;SDS011;55283;51.466;5.478;2022-12-16T09:06:05;10.27;;;5.18;;
68365;SDS011;55283;51.466;5.478;2022-12-16T09:08:49;7.80;;;5.50;;
68365;SDS011;55283;51.466;5.478;2022-12-16T09:11:33;10.25;;;5.38;;
68365;SDS011;55283;51.466;5.478;2022-12-16T09:14:17;7.25;;;5.13;;
68365;SDS011;55283;51.466;5.478;2022-12-16T09:17:01;8.30;;;4.83;;
68365;SDS011;55283;51.466;5.478;2022-12-16T09:19:45;7.22;;;4.80;;
68365;SDS011;55283;51.466;5.478;2022-12-16T09:22:32;7.20;;;5.10;;
68365;SDS011;55283;51.466;5.478;2022-12-16T09:25:19;7.80;;;5.20;;
68365;SDS011;55283;51.466;5.478;2022-12-16T09:28:03;7.72;;;5.18;;
68365;SDS011;55283;51.466;5.478;2022-12-16T09:30:50;8.93;;;5.30;;
68365;SDS011;55283;51.466;5.478;2022-12-16T09:33:34;9.80;;;5.10;;
68365;SDS011;55283;51.466;5.478;2022-12-16T09:36:18;9.13;;;4.90;;
68365;SDS011;55283;51.466;5.478;2022-12-16T09:39:02;8.55;;;5.32;;
68365;SDS011;55283;51.466;5.478;2022-12-16T09:41:59;7.22;;;4.85;;
68365;SDS011;55283;51.466;5.478;2022-12-16T09:48:12;9.65;;;5.30;;
68365;SDS011;55283;51.466;5.478;2022-12-16T09:51:06;6.43;;;4.60;;
68365;SDS011;55283;51.466;5.478;2022-12-16T09:53:51;7.83;;;5.00;;
68365;SDS011;55283;51.466;5.478;2022-12-16T09:56:39;8.18;;;4.82;;
68365;SDS011;55283;51.466;5.478;2022-12-16T09:59:25;8.05;;;4.70;;
68365;SDS011;55283;51.466;5.478;2022-12-16T10:02:13;6.47;;;4.60;;
68365;SDS011;55283;51.466;5.478;2022-12-16T10:05:02;8.77;;;4.70;;
68365;SDS011;55283;51.466;5.478;2022-12-16T10:07:56;7.47;;;4.40;;
68365;SDS011;55283;51.466;5.478;2022-12-16T10:11:06;6.07;;;4.22;;
68365;SDS011;55283;51.466;5.478;2022-12-16T10:16:59;7.75;;;4.63;;
68365;SDS011;55283;51.466;5.478;2022-12-16T10:26:07;6.18;;;4.50;;
68365;SDS011;55283;51.466;5.478;2022-12-16T10:29:20;5.53;;;4.15;;
68365;SDS011;55283;51.466;5.478;2022-12-16T10:32:38;5.38;;;4.20;;
68365;SDS011;55283;51.466;5.478;2022-12-16T10:35:27;6.10;;;4.10;;
68365;SDS011;55283;51.466;5.478;2022-12-16T10:38:24;11.38;;;5.35;;
68365;SDS011;55283;51.466;5.478;2022-12-16T10:41:12;7.32;;;5.18;;
68365;SDS011;55283;51.466;5.478;2022-12-16T10:43:57;7.70;;;4.70;;
68365;SDS011;55283;51.466;5.478;2022-12-16T10:46:42;9.02;;;4.70;;
68365;SDS011;55283;51.466;5.478;2022-12-16T10:49:26;7.03;;;4.70;;
68365;SDS011;55283;51.466;5.478;2022-12-16T10:52:11;7.63;;;4.43;;
68365;SDS011;55283;51.466;5.478;2022-12-16T11:00:49;8.00;;;4.68;;
68365;SDS011;55283;51.466;5.478;2022-12-16T11:03:37;7.93;;;4.50;;
68365;SDS011;55283;51.466;5.478;2022-12-16T11:09:27;6.40;;;4.25;;
68365;SDS011;55283;51.466;5.478;2022-12-16T11:12:16;6.03;;;4.20;;
68365;SDS011;55283;51.466;5.478;2022-12-16T11:18:15;5.40;;;4.00;;
68365;SDS011;55283;51.466;5.478;2022-12-16T11:21:16;5.40;;;4.13;;
68365;SDS011;55283;51.466;5.478;2022-12-16T11:26:53;6.85;;;4.28;;
68365;SDS011;55283;51.466;5.478;2022-12-16T11:29:52;7.38;;;4.20;;
68365;SDS011;55283;51.466;5.478;2022-12-16T11:32:50;6.33;;;4.00;;
68365;SDS011;55283;51.466;5.478;2022-12-16T11:35:38;5.82;;;3.97;;
68365;SDS011;55283;51.466;5.478;2022-12-16T11:41:25;6.03;;;3.73;;
68365;SDS011;55283;51.466;5.478;2022-12-16T11:44:18;6.30;;;4.00;;
68365;SDS011;55283;51.466;5.478;2022-12-16T11:47:17;5.35;;;4.07;;
68365;SDS011;55283;51.466;5.478;2022-12-16T11:50:15;6.73;;;3.93;;
68365;SDS011;55283;51.466;5.478;2022-12-16T11:53:01;7.45;;;4.28;;
68365;SDS011;55283;51.466;5.478;2022-12-16T11:55:47;5.35;;;4.00;;
68365;SDS011;55283;51.466;5.478;2022-12-16T11:58:45;5.43;;;3.70;;
68365;SDS011;55283;51.466;5.478;2022-12-16T12:01:40;6.33;;;4.20;;
68365;SDS011;55283;51.466;5.478;2022-12-16T12:04:30;5.45;;;4.13;;
68365;SDS011;55283;51.466;5.478;2022-12-16T12:07:21;5.30;;;3.72;;
68365;SDS011;55283;51.466;5.478;2022-12-16T12:16:28;4.93;;;3.90;;
68365;SDS011;55283;51.466;5.478;2022-12-16T12:19:18;4.87;;;3.50;;
68365;SDS011;55283;51.466;5.478;2022-12-16T12:22:10;4.80;;;3.88;;
68365;SDS011;55283;51.466;5.478;2022-12-16T12:25:06;4.75;;;3.90;;
68365;SDS011;55283;51.466;5.478;2022-12-16T12:28:05;7.22;;;3.90;;
68365;SDS011;55283;51.466;5.478;2022-12-16T12:31:11;5.63;;;4.07;;
68365;SDS011;55283;51.466;5.478;2022-12-16T12:37:11;5.40;;;3.80;;
68365;SDS011;55283;51.466;5.478;2022-12-16T12:49:31;7.30;;;3.73;;
68365;SDS011;55283;51.466;5.478;2022-12-16T12:55:51;4.30;;;3.40;;
68365;SDS011;55283;51.466;5.478;2022-12-16T12:58:50;5.22;;;3.50;;
68365;SDS011;55283;51.466;5.478;2022-12-16T13:01:39;5.00;;;3.70;;
68365;SDS011;55283;51.466;5.478;2022-12-16T13:04:25;4.30;;;3.55;;
68365;SDS011;55283;51.466;5.478;2022-12-16T13:07:11;4.63;;;3.70;;
68365;SDS011;55283;51.466;5.478;2022-12-16T13:15:59;5.95;;;3.42;;
68365;SDS011;55283;51.466;5.478;2022-12-16T13:18:43;5.63;;;4.03;;
68365;SDS011;55283;51.466;5.478;2022-12-16T13:27:29;6.60;;;3.50;;
68365;SDS011;55283;51.466;5.478;2022-12-16T13:30:28;5.40;;;3.20;;
68365;SDS011;55283;51.466;5.478;2022-12-16T13:36:14;4.10;;;3.70;;
68365;SDS011;55283;51.466;5.478;2022-12-16T13:42:33;4.40;;;3.40;;
68365;SDS011;55283;51.466;5.478;2022-12-16T13:48:29;5.73;;;3.83;;
68365;SDS011;55283;51.466;5.478;2022-12-16T13:54:44;4.50;;;3.40;;
68365;SDS011;55283;51.466;5.478;2022-12-16T13:57:34;6.07;;;3.60;;
68365;SDS011;55283;51.466;5.478;2022-12-16T14:00:23;4.50;;;3.63;;
68365;SDS011;55283;51.466;5.478;2022-12-16T14:03:10;4.55;;;3.58;;
68365;SDS011;55283;51.466;5.478;2022-12-16T14:06:00;5.32;;;3.47;;
68365;SDS011;55283;51.466;5.478;2022-12-16T14:09:18;3.80;;;2.97;;
68365;SDS011;55283;51.466;5.478;2022-12-16T14:12:13;4.97;;;3.40;;
68365;SDS011;55283;51.466;5.478;2022-12-16T14:15:12;5.20;;;3.53;;
68365;SDS011;55283;51.466;5.478;2022-12-16T14:18:30;4.23;;;3.47;;
68365;SDS011;55283;51.466;5.478;2022-12-16T14:21:20;4.63;;;3.60;;
68365;SDS011;55283;51.466;5.478;2022-12-16T14:24:27;4.88;;;3.38;;
68365;SDS011;55283;51.466;5.478;2022-12-16T14:27:18;7.28;;;3.80;;
68365;SDS011;55283;51.466;5.478;2022-12-16T14:36:24;5.00;;;3.00;;
68365;SDS011;55283;51.466;5.478;2022-12-16T14:39:21;6.50;;;2.87;;
68365;SDS011;55283;51.466;5.478;2022-12-16T14:42:22;4.25;;;3.00;;
68365;SDS011;55283;51.466;5.478;2022-12-16T14:45:29;8.27;;;3.50;;
68365;SDS011;55283;51.466;5.478;2022-12-16T14:48:28;5.67;;;3.37;;
68365;SDS011;55283;51.466;5.478;2022-12-16T14:57:03;4.78;;;3.08;;
68365;SDS011;55283;51.466;5.478;2022-12-16T14:59:58;3.83;;;2.80;;
68365;SDS011;55283;51.466;5.478;2022-12-16T15:02:45;6.10;;;2.95;;
68365;SDS011;55283;51.466;5.478;2022-12-16T15:05:31;4.03;;;3.10;;
68365;SDS011;55283;51.466;5.478;2022-12-16T15:08:18;5.20;;;2.93;;
68365;SDS011;55283;51.466;5.478;2022-12-16T15:11:04;3.50;;;2.90;;
68365;SDS011;55283;51.466;5.478;2022-12-16T15:13:53;3.97;;;3.00;;
68365;SDS011;55283;51.466;5.478;2022-12-16T15:16:40;4.47;;;3.20;;
68365;SDS011;55283;51.466;5.478;2022-12-16T15:19:29;3.63;;;3.10;;
68365;SDS011;55283;51.466;5.478;2022-12-16T15:22:20;3.88;;;2.97;;
68365;SDS011;55283;51.466;5.478;2022-12-16T15:25:04;6.32;;;3.40;;
68365;SDS011;55283;51.466;5.478;2022-12-16T15:31:13;12.75;;;4.50;;
68365;SDS011;55283;51.466;5.478;2022-12-16T15:34:36;14.20;;;6.28;;
68365;SDS011;55283;51.466;5.478;2022-12-16T15:37:38;15.57;;;6.43;;
68365;SDS011;55283;51.466;5.478;2022-12-16T15:40:25;19.15;;;6.07;;
68365;SDS011;55283;51.466;5.478;2022-12-16T15:43:20;16.15;;;6.60;;
68365;SDS011;55283;51.466;5.478;2022-12-16T15:46:05;13.27;;;5.87;;
68365;SDS011;55283;51.466;5.478;2022-12-16T15:48:49;12.35;;;6.10;;
68365;SDS011;55283;51.466;5.478;2022-12-16T15:51:49;13.70;;;6.20;;
68365;SDS011;55283;51.466;5.478;2022-12-16T15:54:48;14.05;;;6.47;;
68365;SDS011;55283;51.466;5.478;2022-12-16T15:57:34;14.23;;;6.07;;
68365;SDS011;55283;51.466;5.478;2022-12-16T16:00:26;12.77;;;6.40;;
68365;SDS011;55283;51.466;5.478;2022-12-16T16:03:16;10.65;;;5.90;;
68365;SDS011;55283;51.466;5.478;2022-12-16T16:06:16;14.47;;;6.23;;
68365;SDS011;55283;51.466;5.478;2022-12-16T16:09:12;11.43;;;5.82;;
68365;SDS011;55283;51.466;5.478;2022-12-16T16:12:18;12.57;;;6.43;;
68365;SDS011;55283;51.466;5.478;2022-12-16T16:15:04;12.20;;;6.70;;
68365;SDS011;55283;51.466;5.478;2022-12-16T16:17:52;16.70;;;6.05;;
68365;SDS011;55283;51.466;5.478;2022-12-16T16:20:38;12.15;;;6.32;;
68365;SDS011;55283;51.466;5.478;2022-12-16T16:23:22;11.52;;;6.65;;
68365;SDS011;55283;51.466;5.478;2022-12-16T16:26:08;13.67;;;6.97;;
68365;SDS011;55283;51.466;5.478;2022-12-16T16:28:57;12.38;;;6.70;;
68365;SDS011;55283;51.466;5.478;2022-12-16T16:31:41;10.35;;;6.32;;
68365;SDS011;55283;51.466;5.478;2022-12-16T16:34:25;13.83;;;6.43;;
68365;SDS011;55283;51.466;5.478;2022-12-16T16:37:15;11.95;;;6.70;;
68365;SDS011;55283;51.466;5.478;2022-12-16T16:43:15;12.13;;;6.50;;
68365;SDS011;55283;51.466;5.478;2022-12-16T16:45:59;10.85;;;6.65;;
68365;SDS011;55283;51.466;5.478;2022-12-16T16:48:44;13.48;;;6.82;;
68365;SDS011;55283;51.466;5.478;2022-12-16T16:51:28;12.80;;;6.25;;
68365;SDS011;55283;51.466;5.478;2022-12-16T16:54:12;9.70;;;6.40;;
68365;SDS011;55283;51.466;5.478;2022-12-16T16:56:56;11.93;;;6.60;;
68365;SDS011;55283;51.466;5.478;2022-12-16T16:59:45;12.43;;;6.50;;
68365;SDS011;55283;51.466;5.478;2022-12-16T17:02:32;10.70;;;6.50;;
68365;SDS011;55283;51.466;5.478;2022-12-16T17:05:16;12.23;;;7.20;;
68365;SDS011;55283;51.466;5.478;2022-12-16T17:08:00;11.63;;;6.70;;
68365;SDS011;55283;51.466;5.478;2022-12-16T17:10:45;10.37;;;6.87;;
68365;SDS011;55283;51.466;5.478;2022-12-16T17:13:30;12.02;;;6.75;;
68365;SDS011;55283;51.466;5.478;2022-12-16T17:16:16;13.43;;;7.10;;
68365;SDS011;55283;51.466;5.478;2022-12-16T17:19:00;10.55;;;6.75;;
68365;SDS011;55283;51.466;5.478;2022-12-16T17:21:44;9.90;;;6.60;;
68365;SDS011;55283;51.466;5.478;2022-12-16T17:24:28;11.35;;;6.53;;
68365;SDS011;55283;51.466;5.478;2022-12-16T17:27:16;12.65;;;7.70;;
68365;SDS011;55283;51.466;5.478;2022-12-16T17:30:03;11.67;;;6.57;;
68365;SDS011;55283;51.466;5.478;2022-12-16T17:32:58;15.07;;;6.78;;
68365;SDS011;55283;51.466;5.478;2022-12-16T17:35:42;12.98;;;7.10;;
68365;SDS011;55283;51.466;5.478;2022-12-16T17:38:33;11.57;;;7.40;;
68365;SDS011;55283;51.466;5.478;2022-12-16T17:41:20;11.85;;;7.22;;
68365;SDS011;55283;51.466;5.478;2022-12-16T17:44:07;14.82;;;7.65;;
68365;SDS011;55283;51.466;5.478;2022-12-16T17:46:51;14.52;;;8.07;;
68365;SDS011;55283;51.466;5.478;2022-12-16T17:49:34;11.97;;;6.97;;
68365;SDS011;55283;51.466;5.478;2022-12-16T17:52:24;12.15;;;7.20;;
68365;SDS011;55283;51.466;5.478;2022-12-16T17:55:22;11.40;;;7.50;;
68365;SDS011;55283;51.466;5.478;2022-12-16T17:58:05;9.47;;;7.27;;
68365;SDS011;55283;51.466;5.478;2022-12-16T18:00:52;12.63;;;7.70;;
68365;SDS011;55283;51.466;5.478;2022-12-16T18:03:36;13.48;;;7.78;;
68365;SDS011;55283;51.466;5.478;2022-12-16T18:06:20;10.30;;;7.37;;
68365;SDS011;55283;51.466;5.478;2022-12-16T18:09:04;11.35;;;7.75;;
68365;SDS011;55283;51.466;5.478;2022-12-16T18:11:48;11.38;;;7.55;;
68365;SDS011;55283;51.466;5.478;2022-12-16T18:14:32;10.70;;;7.88;;
68365;SDS011;55283;51.466;5.478;2022-12-16T18:17:16;11.33;;;7.70;;
68365;SDS011;55283;51.466;5.478;2022-12-16T18:20:00;11.50;;;7.80;;
68365;SDS011;55283;51.466;5.478;2022-12-16T18:22:44;10.32;;;7.53;;
68365;SDS011;55283;51.466;5.478;2022-12-16T18:25:28;10.17;;;7.60;;
68365;SDS011;55283;51.466;5.478;2022-12-16T18:28:12;11.18;;;7.65;;
68365;SDS011;55283;51.466;5.478;2022-12-16T18:30:56;10.32;;;7.78;;